Time;durP1;ratioP1;P1;durP2;ratioP2;P2;SDS_P1;SDS_P2;PMS_P1;PMS_P2;Temp;Humidity;BMP_temperature;BMP_pressure;BME280_temperature;BME280_humidity;BME280_pressure;Samples;Min_cycle;Max_cycle;Signal;HPM_P1;HPM_P2
2021/11/10 00:09:33;;;;;;;7.88;2.60;;;;;;;;;;21083286;28;20135;-59
2021/11/10 00:19:35;;;;;;;8.38;2.47;;;;;;;;;;21065916;28;20477;-59
2021/11/10 00:29:38;;;;;;;6.03;2.63;;;;;;;;;;21081783;28;20060;-58
2021/11/10 00:39:40;;;;;;;5.60;2.17;;;;;;;;;;21082213;28;20044;-58
2021/11/10 00:49:42;;;;;;;7.55;2.20;;;;;;;;;;21080932;28;20181;-60
2021/11/10 00:59:44;;;;;;;6.43;1.83;;;;;;;;;;21080456;28;20044;-59
2021/11/10 01:09:47;;;;;;;6.20;2.17;;;;;;;;;;21080069;28;20408;-59
2021/11/10 01:19:50;;;;;;;4.50;1.70;;;;;;;;;;21079274;28;20040;-58
2021/11/10 01:29:51;;;;;;;5.70;2.13;;;;;;;;;;21078785;28;20056;-57
2021/11/10 01:39:56;;;;;;;5.55;2.05;;;;;;;;;;21078763;28;20043;-60
2021/11/10 01:49:59;;;;;;;8.13;2.60;;;;;;;;;;21078304;28;20052;-59
2021/11/10 02:00:10;;;;;;;5.50;1.92;;;;;;;;;;21077774;28;20087;-58
2021/11/10 02:10:13;;;;;;;6.40;2.15;;;;;;;;;;21077227;28;20048;-58
2021/11/10 02:20:18;;;;;;;11.25;3.40;;;;;;;;;;21077027;28;20476;-58
2021/11/10 02:30:20;;;;;;;6.10;2.17;;;;;;;;;;21085153;28;20527;-58
2021/11/10 02:40:23;;;;;;;5.18;2.20;;;;;;;;;;21091953;28;20050;-58
2021/11/10 02:50:30;;;;;;;6.32;2.20;;;;;;;;;;21091692;28;20087;-57
2021/11/10 03:00:39;;;;;;;5.57;2.25;;;;;;;;;;21091015;28;20514;-58
2021/11/10 03:10:46;;;;;;;6.10;2.13;;;;;;;;;;21090351;28;20073;-60
2021/11/10 03:20:51;;;;;;;5.55;2.22;;;;;;;;;;21089694;28;20052;-62
2021/11/10 03:30:57;;;;;;;;;;;;;;;;;;21087787;28;20500;-62
2021/11/10 03:41:01;;;;;;;5.18;2.30;;;;;;;;;;21087246;28;19926;-61
2021/11/10 03:51:04;;;;;;;4.50;2.00;;;;;;;;;;21088448;28;20051;-57
2021/11/10 04:01:08;;;;;;;6.15;2.40;;;;;;;;;;21089163;28;20043;-58
2021/11/10 04:11:12;;;;;;;5.63;2.28;;;;;;;;;;21084596;28;20417;-62
2021/11/10 04:21:14;;;;;;;3.65;1.80;;;;;;;;;;21083578;28;20127;-59
2021/11/10 04:31:20;;;;;;;6.18;2.08;;;;;;;;;;21082113;28;20055;-57
2021/11/10 04:41:24;;;;;;;5.28;2.35;;;;;;;;;;21083010;28;20126;-62
2021/11/10 04:51:28;;;;;;;8.25;1.73;;;;;;;;;;21080880;28;20087;-60
2021/11/10 05:01:34;;;;;;;7.00;2.10;;;;;;;;;;21080723;28;20476;-57
2021/11/10 05:11:36;;;;;;;5.93;2.28;;;;;;;;;;21079731;28;20135;-59
2021/11/10 05:21:38;;;;;;;6.78;2.50;;;;;;;;;;21079672;28;20458;-56
2021/11/10 05:31:41;;;;;;;6.60;2.70;;;;;;;;;;21078307;28;20052;-57
2021/11/10 05:41:45;;;;;;;5.75;1.95;;;;;;;;;;21078427;28;20041;-57
2021/11/10 05:51:48;;;;;;;7.32;2.97;;;;;;;;;;21079093;28;20044;-57
2021/11/10 06:01:50;;;;;;;6.57;2.60;;;;;;;;;;21082807;28;20499;-56
2021/11/10 06:11:52;;;;;;;9.30;2.72;;;;;;;;;;21094411;28;20056;-58
2021/11/10 06:21:55;;;;;;;4.95;2.20;;;;;;;;;;21092386;28;20048;-56
2021/11/10 06:31:58;;;;;;;7.75;3.08;;;;;;;;;;21090498;28;20117;-57
2021/11/10 06:42:01;;;;;;;8.02;2.63;;;;;;;;;;21091467;28;20540;-59
2021/11/10 06:52:04;;;;;;;8.52;3.22;;;;;;;;;;21090652;28;20048;-58
2021/11/10 07:02:06;;;;;;;8.70;3.30;;;;;;;;;;21090002;28;20048;-57
2021/11/10 07:12:09;;;;;;;7.72;3.33;;;;;;;;;;21088496;28;20047;-58
2021/11/10 07:22:12;;;;;;;11.57;3.45;;;;;;;;;;21088111;28;20052;-62
2021/11/10 07:32:15;;;;;;;6.35;2.95;;;;;;;;;;21087039;28;20186;-58
2021/11/10 07:42:17;;;;;;;16.23;3.35;;;;;;;;;;21086574;28;20044;-60
2021/11/10 07:52:19;;;;;;;11.55;3.33;;;;;;;;;;21085548;28;20048;-56
2021/11/10 08:02:22;;;;;;;10.30;4.32;;;;;;;;;;21083941;28;20129;-58
2021/11/10 08:12:27;;;;;;;10.32;4.53;;;;;;;;;;21083779;28;20071;-57
2021/11/10 08:22:31;;;;;;;13.23;4.53;;;;;;;;;;21081823;28;20178;-58
2021/11/10 08:32:34;;;;;;;12.23;3.92;;;;;;;;;;21082567;28;20044;-58
2021/11/10 08:42:38;;;;;;;9.35;4.07;;;;;;;;;;21081472;28;20106;-58
2021/11/10 08:52:44;;;;;;;10.23;4.00;;;;;;;;;;21080635;28;20044;-61
2021/11/10 09:02:48;;;;;;;19.43;4.40;;;;;;;;;;21080477;28;20052;-58
2021/11/10 09:12:51;;;;;;;13.93;5.07;;;;;;;;;;21079873;28;20463;-58
2021/11/10 09:22:54;;;;;;;11.05;4.78;;;;;;;;;;21079497;28;20055;-59
2021/11/10 09:32:58;;;;;;;13.55;4.45;;;;;;;;;;21079079;28;20045;-62
2021/11/10 09:43:02;;;;;;;9.02;3.70;;;;;;;;;;21078062;28;20499;-63
2021/11/10 09:53:04;;;;;;;8.80;4.00;;;;;;;;;;21079205;28;20119;-57
2021/11/10 10:03:06;;;;;;;8.60;3.28;;;;;;;;;;21078228;28;20153;-57
2021/11/10 10:13:09;;;;;;;9.43;3.72;;;;;;;;;;21078211;28;20063;-58
2021/11/10 10:23:15;;;;;;;9.45;3.40;;;;;;;;;;21077109;28;20080;-58
2021/11/10 10:33:22;;;;;;;7.85;3.10;;;;;;;;;;21076349;28;20044;-53
2021/11/10 10:43:27;;;;;;;8.65;3.50;;;;;;;;;;21052623;28;20040;-52
2021/11/10 10:53:32;;;;;;;7.78;3.38;;;;;;;;;;21084686;28;20101;-55
2021/11/10 11:03:34;;;;;;;8.65;3.15;;;;;;;;;;21068074;28;20040;-56
2021/11/10 11:13:44;;;;;;;7.65;2.63;;;;;;;;;;21087708;28;20499;-52
2021/11/10 11:23:47;;;;;;;8.20;2.50;;;;;;;;;;21081156;28;20097;-52
2021/11/10 11:34:00;;;;;;;7.63;2.60;;;;;;;;;;21086909;28;20052;-65
2021/11/10 11:44:03;;;;;;;10.48;3.67;;;;;;;;;;21086021;28;20048;-58
2021/11/10 11:54:07;;;;;;;6.53;2.78;;;;;;;;;;21080236;28;20076;-52
2021/11/10 12:04:12;;;;;;;6.82;3.55;;;;;;;;;;21076769;28;20056;-54
2021/11/10 12:14:16;;;;;;;12.93;3.67;;;;;;;;;;21068747;28;20052;-54
2021/11/10 12:24:26;;;;;;;11.00;3.22;;;;;;;;;;21079066;28;20381;-54
2021/11/10 12:34:29;;;;;;;10.25;3.72;;;;;;;;;;21071340;28;20135;-54
2021/11/10 12:44:54;;;;;;;7.75;3.30;;;;;;;;;;21077197;28;20047;-51
2021/11/10 12:55:13;;;;;;;9.18;3.08;;;;;;;;;;21077986;28;20044;-54
2021/11/10 13:05:21;;;;;;;8.70;3.72;;;;;;;;;;21071668;28;20060;-60
2021/11/10 13:15:24;;;;;;;8.75;3.95;;;;;;;;;;21079439;28;20076;-58
2021/11/10 13:25:34;;;;;;;9.15;3.35;;;;;;;;;;21118385;28;20047;-59
2021/11/10 13:35:38;;;;;;;9.18;3.97;;;;;;;;;;21163048;28;20075;-61
2021/11/10 13:45:44;;;;;;;11.80;3.95;;;;;;;;;;21162463;28;20469;-63
2021/11/10 13:55:48;;;;;;;6.35;3.50;;;;;;;;;;21162354;28;20055;-63
2021/11/10 14:05:51;;;;;;;9.02;3.40;;;;;;;;;;21160743;28;20052;-60
2021/11/10 14:15:55;;;;;;;7.63;3.47;;;;;;;;;;21161001;28;20070;-61
2021/11/10 14:26:04;;;;;;;18.27;4.07;;;;;;;;;;21168444;28;20453;-61
2021/11/10 14:36:09;;;;;;;6.88;3.00;;;;;;;;;;21175831;28;20050;-61
2021/11/10 14:46:37;;;;;;;6.20;2.47;;;;;;;;;;21157901;28;20073;-61
2021/11/10 14:56:57;;;;;;;9.60;4.35;;;;;;;;;;21174876;28;20133;-62
2021/11/10 15:07:01;;;;;;;14.52;4.55;;;;;;;;;;21173510;28;20090;-60
2021/11/10 15:17:21;;;;;;;8.30;3.95;;;;;;;;;;21173213;28;20506;-60
2021/11/10 15:27:24;;;;;;;6.65;3.75;;;;;;;;;;21154538;28;20051;-60
2021/11/10 15:37:27;;;;;;;7.45;3.10;;;;;;;;;;21172045;28;20048;-60
2021/11/10 15:47:30;;;;;;;7.43;2.92;;;;;;;;;;21170641;28;20055;-60
2021/11/10 15:57:33;;;;;;;8.82;2.92;;;;;;;;;;21152962;28;20048;-61
2021/11/10 16:07:37;;;;;;;7.75;4.70;;;;;;;;;;21169856;28;20051;-62
2021/11/10 16:17:40;;;;;;;5.95;2.78;;;;;;;;;;21168149;28;20056;-61
2021/11/10 16:28:03;;;;;;;7.80;3.23;;;;;;;;;;21165698;28;20070;-56
2021/11/10 16:38:06;;;;;;;8.10;2.85;;;;;;;;;;21153969;28;20054;-60
2021/11/10 16:48:08;;;;;;;9.82;3.70;;;;;;;;;;21163978;27;20054;-56
2021/11/10 16:58:22;;;;;;;31.85;18.73;;;;;;;;;;21150693;27;20557;-56
2021/11/10 17:08:26;;;;;;;9.80;4.90;;;;;;;;;;21150103;27;20411;-57
2021/11/10 17:18:29;;;;;;;8.07;4.28;;;;;;;;;;21205770;27;20047;-61
2021/11/10 17:28:32;;;;;;;12.60;4.32;;;;;;;;;;21211956;27;20184;-64
2021/11/10 17:38:36;;;;;;;10.88;4.13;;;;;;;;;;21212531;27;20043;-59
2021/11/10 17:48:38;;;;;;;12.27;5.00;;;;;;;;;;21162414;28;20462;-63
2021/11/10 17:58:41;;;;;;;16.48;6.00;;;;;;;;;;21171107;28;20122;-54
2021/11/10 18:08:43;;;;;;;22.50;14.00;;;;;;;;;;21177918;28;20043;-69
2021/11/10 18:18:46;;;;;;;16.40;7.38;;;;;;;;;;21159990;28;20081;-62
2021/11/10 18:28:48;;;;;;;16.55;7.53;;;;;;;;;;21177704;28;20055;-67
2021/11/10 18:38:51;;;;;;;12.80;6.55;;;;;;;;;;21176290;28;20591;-68
2021/11/10 18:48:54;;;;;;;19.40;8.00;;;;;;;;;;21174921;28;20062;-59
2021/11/10 18:58:58;;;;;;;14.60;7.20;;;;;;;;;;21158073;28;20043;-60
2021/11/10 19:29:43;;;;;;;19.10;8.48;;;;;;;;;;21171521;28;20047;-62
2021/11/10 19:39:45;;;;;;;22.20;9.30;;;;;;;;;;21170315;28;20039;-56
2021/11/10 19:49:48;;;;;;;18.33;8.98;;;;;;;;;;21170757;28;20067;-64
2021/11/10 19:59:50;;;;;;;12.35;5.82;;;;;;;;;;21170732;28;20055;-58
2021/11/10 20:09:52;;;;;;;19.33;12.80;;;;;;;;;;21169509;28;20062;-58
2021/11/10 20:20:01;;;;;;;14.43;6.47;;;;;;;;;;21168000;28;20483;-59
2021/11/10 20:30:04;;;;;;;17.95;10.18;;;;;;;;;;21166435;28;20052;-61
2021/11/10 20:40:06;;;;;;;16.88;8.60;;;;;;;;;;21165931;28;20051;-61
2021/11/10 20:50:10;;;;;;;20.27;10.80;;;;;;;;;;21165303;28;20059;-58
2021/11/10 21:00:14;;;;;;;26.80;13.00;;;;;;;;;;21165603;28;20059;-58
2021/11/10 21:10:18;;;;;;;24.27;14.50;;;;;;;;;;21164424;28;20051;-59
2021/11/10 21:20:20;;;;;;;26.60;14.32;;;;;;;;;;21145798;28;20055;-62
2021/11/10 21:30:23;;;;;;;27.10;13.48;;;;;;;;;;21162788;28;20549;-58
2021/11/10 21:40:26;;;;;;;17.75;8.93;;;;;;;;;;21163689;28;20399;-59
2021/11/10 21:50:29;;;;;;;12.45;4.93;;;;;;;;;;21162636;28;20484;-59
2021/11/10 22:00:34;;;;;;;11.90;4.60;;;;;;;;;;21144237;28;20086;-58
2021/11/10 22:10:36;;;;;;;11.93;4.00;;;;;;;;;;21162234;28;20051;-59
2021/11/10 22:20:39;;;;;;;9.30;4.28;;;;;;;;;;21161570;28;20055;-58
2021/11/10 22:30:41;;;;;;;8.85;3.60;;;;;;;;;;21160614;28;20060;-58
2021/11/10 22:40:43;;;;;;;9.55;3.47;;;;;;;;;;21160956;28;20048;-59
2021/11/10 22:50:46;;;;;;;6.75;3.40;;;;;;;;;;21174150;28;20052;-58
2021/11/10 23:00:50;;;;;;;5.60;3.85;;;;;;;;;;21156683;28;20069;-59
2021/11/10 23:10:54;;;;;;;8.52;4.70;;;;;;;;;;21175279;28;20079;-59
2021/11/10 23:20:56;;;;;;;13.25;5.05;;;;;;;;;;21174453;28;20043;-59
2021/11/10 23:30:59;;;;;;;11.32;4.57;;;;;;;;;;21172487;28;20091;-58
2021/11/10 23:41:01;;;;;;;9.55;3.95;;;;;;;;;;21154188;28;20400;-58
2021/11/10 23:51:04;;;;;;;7.68;4.25;;;;;;;;;;21171998;28;20559;-60
